Artesian, SD

2:31 AM CDT on September 01, 2014 (GMT -0500)
Mitchell Municipal | Change Station
CLOSE
Current Station
Airport
Location: Mitchell,
Elevation: 1302 ft
Nearby Weather Stations

Elev 1302 ft 43.77 °N, 98.04 °W | Updated 38 minutes ago

Overcast
Overcast
65 °F
Feels Like 65 °F
N
9
Wind Variable Wind from NW

Today
High -- | Low -- °F
--% Chance of Precip.
Yesterday
High -- | Low -- °F
Precip. -- in
6:55 AM 8:07 PM
Waxing Crescent, 38% visible
Pressure 29.69 in
Visibility 10.0 miles
Clouds Overcast 10000 ft
Dew Point 62 °F
Humidity 90%
Rainfall 0.00 in
Snow Depth Not available.
UV 0 out of 12
Pollen 9.00 out of 12
Air Quality Not available.
Flu Activity Not available.
METAR KMHE 010653Z AUTO 31008KT 10SM OVC100 18/17 A2971 RMK AO2 LTG DSNT N AND NW RAB0556E49 SLP054 P0000 T01830167 $

More Conditions Fewer Conditions

Pressure 29.69 in
Visibility 10.0 miles
Clouds Overcast 10000 ft
Dew Point 62 °F
Humidity 90%
Rainfall 0.00 in
Snow Depth Not available.
UV 0 out of 12
Pollen 9.00 out of 12
Air Quality Not available.
Flu Activity Not available.
METAR KMHE 010653Z AUTO 31008KT 10SM OVC100 18/17 A2971 RMK AO2 LTG DSNT N AND NW RAB0556E49 SLP054 P0000 T01830167 $

More Conditions Fewer Conditions

10-Day Weather Forecast

Almanac

Astronomy

Sep. 01, 2014 Rise Set
Actual Time 6:55 AM CDT 8:07 PM CDT
Civil Twilight 6:25 AM CDT 8:37 PM CDT
Nautical Twilight 5:49 AM CDT 9:12 PM CDT
Astronomical Twilight 5:11 AM CDT 9:50 PM CDT
Moon 1:56 PM CDT 11:55 PM CDT
Length of Visible Light 14h 12m
Length of Day
13h 12m
Tomorrow will be 2m 55s shorter.
Waxing Crescent, 38% of the Moon is Illuminated
Today
Waxing Crescent
Sep 2
First Quarter
Sep 8
Full
Sep 15
Last Quarter
Sep 24
New

Today's Extremes

State Highs State Lows

Community

WunderPhotos

Upload Photos

1,749,154 photos uploaded!

Nearby

Snow Depth

Station Depth Elevation
North Rapid Creek 0 in 6130 ft
Blind Park 0 in 6890 ft

Earthquake Activity

City Distance Mag. Time & Date
No recent earthquake activity has been reported nearby.
Minimum magnitude displayed is 2.5.

Coastal Water Temperatures

Place Temperature
No Stations Reporting

Nearby Weather Stations